Time;durP1;ratioP1;P1;durP2;ratioP2;P2;SDS_P1;SDS_P2;PMS_P1;PMS_P2;Temp;Humidity;BMP_temperature;BMP_pressure;BME280_temperature;BME280_humidity;BME280_pressure;Samples;Min_cycle;Max_cycle;Signal;HPM_P1;HPM_P2
2023/08/15 00:01:29;;;;;;;;;;;;;;;;;;;;;
2023/08/15 00:05:29;;;;;;;9.80;6.20;;;;;;;22.80;54.39;100603.10;109209;1279;21984;-81
2023/08/15 00:09:45;;;;;;;7.70;6.50;;;;;;;22.78;54.44;100600.64;108721;1285;22083;-82
2023/08/15 00:13:05;;;;;;;;;;;;;;;;;;;;;
2023/08/15 00:16:36;;;;;;;17.00;8.00;;;;;;;22.72;54.50;100596.69;108569;1289;22990;-82
2023/08/15 00:19:17;;;;;;;12.70;6.70;;;;;;;22.71;54.56;100594.66;108422;1288;23804;-82
2023/08/15 00:26:09;;;;;;;7.90;6.20;;;;;;;22.63;54.73;100595.86;108572;1289;22044;-83
2023/08/15 00:29:55;;;;;;;9.20;6.50;;;;;;;22.75;54.53;100588.80;108178;1292;546354;-81
2023/08/15 00:33:58;;;;;;;;;;;;;;;;;;;;;
2023/08/15 00:37:51;;;;;;;9.40;7.10;;;;;;;22.45;55.09;100586.23;108739;1285;23790;-81
2023/08/15 00:40:23;;;;;;;9.90;6.90;;;;;;;22.40;55.16;100583.08;108772;1285;23050;-83
2023/08/15 00:43:17;;;;;;;12.00;7.20;;;;;;;22.37;55.22;100579.98;109030;1275;293603;-82
2023/08/15 00:46:58;;;;;;;8.80;7.10;;;;;;;22.27;55.45;100582.20;109416;1275;22004;-82
2023/08/15 00:50:50;;;;;;;;;;;;;;;;;;;;;
2023/08/15 00:54:53;;;;;;;6.90;5.40;;;;;;;22.02;55.98;100578.40;109107;1274;22074;-82
2023/08/15 00:58:25;;;;;;;7.50;5.80;;;;;;;22.03;56.14;100582.02;109075;1280;22007;-82
2023/08/15 01:01:59;;;;;;;9.60;5.90;;;;;;;22.03;56.14;100581.84;109466;1276;22746;-81
2023/08/15 01:05:33;;;;;;;;;;;;;;;;;;;;;
2023/08/15 01:08:37;;;;;;;8.40;6.30;;;;;;;22.02;56.08;100578.05;109591;1272;22010;-82
2023/08/15 01:12:01;;;;;;;11.60;5.70;;;;;;;22.00;56.07;100579.60;110162;1268;22009;-78
2023/08/15 01:15:02;;;;;;;9.10;6.00;;;;;;;21.99;56.04;100577.77;110926;1260;22413;-81
2023/08/15 01:18:06;;;;;;;11.40;7.60;;;;;;;21.97;56.10;100574.17;111348;1253;21972;-81
2023/08/15 01:22:06;;;;;;;10.60;7.00;;;;;;;21.95;56.27;100573.48;111622;1253;21957;-80
2023/08/15 01:24:58;;;;;;;10.90;6.50;;;;;;;21.96;56.15;100578.55;111879;1253;23822;-81
2023/08/15 01:28:27;;;;;;;9.80;6.70;;;;;;;21.95;56.11;100580.33;111649;1253;21974;-80
2023/08/15 01:31:50;;;;;;;9.90;5.20;;;;;;;21.93;56.18;100582.87;111762;1253;22060;-80
2023/08/15 01:35:34;;;;;;;9.20;5.60;;;;;;;21.88;56.23;100578.30;111938;1253;22043;-81
2023/08/15 01:39:17;;;;;;;;;;;;;;;;;;;;;
2023/08/15 01:43:31;;;;;;;;;;;;;;;;;;;;;
2023/08/15 01:47:59;;;;;;;6.40;5.60;;;;;;;21.62;56.68;100586.03;111236;1259;21961;-80
2023/08/15 01:51:50;;;;;;;11.30;5.50;;;;;;;21.64;56.76;100591.59;109322;1277;21878;-85
2023/08/15 01:56:23;;;;;;;9.10;5.80;;;;;;;21.65;56.79;100591.65;108763;1285;23020;-81
2023/08/15 02:00:34;;;;;;;8.20;6.70;;;;;;;21.65;56.72;100592.73;107943;1296;22007;-80
2023/08/15 02:04:58;;;;;;;10.70;5.60;;;;;;;21.62;56.74;100592.79;107829;1296;22355;-80
2023/08/15 02:08:59;;;;;;;;;;;;;;;;;;;;;
2023/08/15 02:13:33;;;;;;;;;;;;;;;;;;;;;
2023/08/15 02:16:43;;;;;;;7.00;5.60;;;;;;;21.57;57.00;100588.96;106252;1311;22024;-81
2023/08/15 02:20:20;;;;;;;8.90;5.60;;;;;;;21.59;56.89;100588.21;106246;1307;22027;-80
2023/08/15 02:37:22;;;;;;;7.80;4.90;;;;;;;23.02;51.74;100590.04;105899;1262;7031882;-81
2023/08/15 02:40:43;;;;;;;9.00;5.10;;;;;;;22.49;53.06;100592.21;112905;1241;21953;-80
2023/08/15 02:43:42;;;;;;;7.90;5.20;;;;;;;22.24;53.90;100592.17;112792;1241;23080;-81
2023/08/15 02:47:24;;;;;;;;;;;;;;;;;;;;;
2023/08/15 02:52:23;;;;;;;;;;;;;;;;;;;;;
2023/08/15 03:06:44;;;;;;;;;;;;;;;;;;;;;
2023/08/15 03:21:19;;;;;;;11.50;5.90;;;;;;;22.79;53.48;100599.69;111260;1254;548470;-80
2023/08/15 03:25:50;;;;;;;;;;;;;;;;;;;;;
2023/08/15 03:30:33;;;;;;;;;;;;;;;;;;;;;
2023/08/15 03:39:00;;;;;;;;;;;;;;;;;;;;;
2023/08/15 03:43:14;;;;;;;;;;;;;;;;;;;;;
2023/08/15 03:46:45;;;;;;;;;;;;;;;;;;;;;
2023/08/15 03:55:09;;;;;;;;;;;;;;;;;;;;;
2023/08/15 03:59:23;;;;;;;;;;;;;;;;;;;;;
2023/08/15 04:07:57;;;;;;;12.60;5.50;;;;;;;21.07;57.36;100626.16;110116;1265;22014;-82
2023/08/15 04:12:07;;;;;;;11.60;5.10;;;;;;;21.01;57.36;100629.40;109620;1269;21983;-80
2023/08/15 04:34:17;;;;;;;11.70;6.70;;;;;;;22.27;54.01;100634.65;108441;1283;548286;-81
2023/08/15 04:38:17;;;;;;;9.60;6.30;;;;;;;22.19;53.23;100635.65;104309;1279;21998;-81
2023/08/15 04:58:10;;;;;;;;;;;;;;;;;;;;;
2023/08/15 05:02:29;;;;;;;6.50;5.90;;;;;;;21.97;54.73;100644.73;110244;1268;21976;-81
2023/08/15 05:05:57;;;;;;;8.60;5.70;;;;;;;21.88;55.16;100641.02;109755;1271;22002;-81
2023/08/15 05:09:24;;;;;;;9.20;5.40;;;;;;;21.92;55.40;100639.08;109448;1271;22018;-80
2023/08/15 05:13:36;;;;;;;7.40;6.10;;;;;;;21.94;55.80;100637.65;109266;1276;21986;-80
2023/08/15 05:17:10;;;;;;;;;;;;;;;;;;;;;
2023/08/15 05:20:43;;;;;;;10.60;6.00;;;;;;;22.05;55.51;100644.10;110257;1263;23082;-80
2023/08/15 05:34:55;;;;;;;11.60;6.10;;;;;;;23.52;51.75;100643.61;108474;1282;548214;-80
2023/08/15 05:39:36;;;;;;;;;;;;;;;;;;;;;
2023/08/15 05:43:34;;;;;;;;;;;;;;;;;;;;;
2023/08/15 05:47:03;;;;;;;15.50;5.50;;;;;;;23.66;52.23;100648.79;108764;1281;24416;-80
2023/08/15 05:50:58;;;;;;;10.70;5.60;;;;;;;23.79;51.91;100654.28;108576;1285;23667;-79
2023/08/15 05:54:26;;;;;;;;;;;;;;;;;;;;;
2023/08/15 05:58:21;;;;;;;;;;;;;;;;;;;;;
2023/08/15 06:02:09;;;;;;;;;;;;;;;;;;;;;
2023/08/15 06:06:13;;;;;;;8.60;4.80;;;;;;;24.65;50.94;100661.81;107597;1298;22016;-79
2023/08/15 06:09:44;;;;;;;7.50;4.90;;;;;;;25.08;50.39;100664.71;107586;1296;21992;-78
2023/08/15 06:13:31;;;;;;;;;;;;;;;;;;;;;
2023/08/15 06:17:11;;;;;;;;;;;;;;;;;;;;;
2023/08/15 06:20:25;;;;;;;;;;;;;;;;;;;;;
2023/08/15 06:24:02;;;;;;;8.70;4.90;;;;;;;27.23;45.97;100661.32;108940;1284;22033;-83
2023/08/15 06:27:48;;;;;;;4.70;4.10;;;;;;;27.65;44.91;100658.60;108643;1285;23648;-82
2023/08/15 06:31:23;;;;;;;6.50;4.60;;;;;;;28.07;44.74;100658.79;108849;1280;21988;-85
2023/08/15 06:35:08;;;;;;;;;;;;;;;;;;;;;
2023/08/15 06:49:27;;;;;;;10.20;4.00;;;;;;;30.43;38.64;100658.90;110883;1252;547912;-83
2023/08/15 06:54:00;;;;;;;;;;;;;;;;;;;;;
2023/08/15 06:57:35;;;;;;;;;;;;;;;;;;;;;
2023/08/15 07:01:06;;;;;;;6.60;4.00;;;;;;;31.27;37.14;100665.22;110292;1268;22011;-81
2023/08/15 07:03:53;;;;;;;8.50;3.70;;;;;;;31.39;37.74;100668.21;110194;1267;21974;-82
2023/08/15 07:06:43;;;;;;;6.80;3.80;;;;;;;31.67;37.43;100668.20;110206;1267;22329;-82
2023/08/15 07:09:35;;;;;;;8.20;4.10;;;;;;;31.92;36.77;100667.55;110170;1267;21981;-83
2023/08/15 07:12:44;;;;;;;8.70;3.90;;;;;;;32.00;36.02;100668.86;110596;1263;21996;-82
2023/08/15 07:16:11;;;;;;;10.30;3.50;;;;;;;31.98;35.79;100665.76;110849;1261;23807;-82
2023/08/15 07:19:11;;;;;;;9.10;4.50;;;;;;;31.95;35.74;100659.08;111647;1250;23000;-82
2023/08/15 07:21:54;;;;;;;9.90;3.90;;;;;;;32.10;35.68;100664.79;111835;1250;21963;-83
2023/08/15 07:24:45;;;;;;;16.10;4.20;;;;;;;32.23;34.97;100663.85;112009;1250;22430;-83
2023/08/15 07:28:01;;;;;;;;;;;;;;;32.32;34.73;100664.39;111163;1256;22379;-82
2023/08/15 07:30:57;;;;;;;6.20;3.80;;;;;;;32.42;35.12;100666.89;112285;1246;21947;-82
2023/08/15 07:34:29;;;;;;;;;;;;;;;;;;;;;
2023/08/15 07:37:36;;;;;;;;;;;;;;;;;;;;;
2023/08/15 07:40:50;;;;;;;;;;;;;;;;;;;;;
2023/08/15 07:43:46;;;;;;;6.00;3.90;;;;;;;33.05;33.26;100670.77;111211;1257;21996;-83
2023/08/15 07:46:39;;;;;;;28.40;6.10;;;;;;;33.19;33.29;100666.89;111417;1254;23365;-81
2023/08/15 07:50:28;;;;;;;;;;;;;;;;;;;;;
2023/08/15 07:53:32;;;;;;;4.90;3.40;;;;;;;33.58;32.85;100671.73;111722;1249;23039;-82
2023/08/15 07:56:19;;;;;;;5.50;3.60;;;;;;;33.67;32.43;100669.63;111708;1251;22423;-83
2023/08/15 07:59:19;;;;;;;6.40;3.40;;;;;;;33.75;32.75;100670.77;111756;1251;22084;-82
2023/08/15 08:02:31;;;;;;;6.70;3.20;;;;;;;33.76;32.35;100674.03;111748;1251;22724;-83
2023/08/15 08:05:56;;;;;;;;;;;;;;;;;;;;;
2023/08/15 08:09:43;;;;;;;7.70;3.30;;;;;;;33.80;32.39;100671.20;111870;1251;21969;-83
2023/08/15 08:13:35;;;;;;;12.20;4.90;;;;;;;34.12;32.19;100666.47;111862;1244;21977;-82
2023/08/15 08:18:26;;;;;;;;;;;;;;;;;;;;;
2023/08/15 08:24:59;;;;;;;4.80;3.70;;;;;;;34.88;30.34;100663.20;111339;1248;21987;-83
2023/08/15 08:28:11;;;;;;;;;;;;;;;;;;;;;
2023/08/15 08:31:18;;;;;;;5.30;3.60;;;;;;;34.90;30.26;100661.33;111433;1255;21980;-85
2023/08/15 08:34:41;;;;;;;10.60;5.50;;;;;;;34.94;30.13;100655.61;111317;1255;21967;-82
2023/08/15 08:37:46;;;;;;;;;;;;;;;;;;;;;
2023/08/15 08:40:55;;;;;;;7.20;4.20;;;;;;;35.00;29.83;100647.29;111322;1255;21986;-84
2023/08/15 08:43:59;;;;;;;3.40;3.00;;;;;;;35.07;29.56;100657.70;111228;1254;22419;-84
2023/08/15 08:47:03;;;;;;;7.10;3.20;;;;;;;35.09;29.53;100660.09;111660;1254;21979;-82
2023/08/15 08:50:13;;;;;;;5.30;3.20;;;;;;;35.14;29.39;100663.29;111008;1261;21979;-83
2023/08/15 08:52:58;;;;;;;5.50;3.40;;;;;;;35.17;29.59;100661.27;111203;1254;21988;-85
2023/08/15 08:55:53;;;;;;;4.10;3.10;;;;;;;35.16;29.20;100653.98;111452;1254;23915;-84
2023/08/15 08:58:31;;;;;;;3.70;2.80;;;;;;;35.08;29.16;100657.12;111570;1252;22339;-84
2023/08/15 09:01:10;;;;;;;5.70;2.70;;;;;;;35.03;28.87;100652.46;111521;1253;22177;-85
2023/08/15 09:03:52;;;;;;;9.60;3.40;;;;;;;35.05;29.11;100648.29;111691;1253;21960;-83
2023/08/15 09:07:14;;;;;;;;;;;;;;;;;;;;;
2023/08/15 09:10:40;;;;;;;3.60;2.90;;;;;;;35.08;28.67;100643.02;112520;1245;21990;-83
2023/08/15 09:14:07;;;;;;;9.00;2.70;;;;;;;35.16;28.19;100645.68;112352;1246;21960;-82
2023/08/15 09:18:10;;;;;;;7.50;3.40;;;;;;;35.19;28.03;100647.09;112722;1239;21961;-83
2023/08/15 09:22:05;;;;;;;13.30;4.30;;;;;;;35.33;28.21;100646.21;113919;1234;23684;-82
2023/08/15 09:27:03;;;;;;;7.50;2.60;;;;;;;35.37;27.62;100643.23;113448;1239;21950;-82
2023/08/15 09:31:10;;;;;;;5.60;2.40;;;;;;;35.32;27.18;100637.27;112132;1249;22021;-80
2023/08/15 09:37:37;;;;;;;4.80;2.70;;;;;;;35.48;27.09;100628.33;110962;1262;21991;-82
2023/08/15 09:40:53;;;;;;;;;;;;;;;;;;;;;
2023/08/15 09:44:15;;;;;;;3.40;2.40;;;;;;;35.53;26.13;100622.84;110774;1262;21990;-84
2023/08/15 09:48:04;;;;;;;4.90;2.60;;;;;;;35.34;26.39;100620.59;110017;1269;22035;-82
2023/08/15 09:51:48;;;;;;;4.90;3.10;;;;;;;35.26;26.11;100625.84;109534;1273;22191;-80
2023/08/15 09:54:50;;;;;;;6.50;3.10;;;;;;;35.20;25.83;100619.38;109349;1275;21996;-81
2023/08/15 09:57:53;;;;;;;;;;;;;;;;;;;;;
2023/08/15 10:01:08;;;;;;;6.50;4.10;;;;;;;35.22;26.32;100626.14;108990;1277;21994;-81
2023/08/15 10:04:52;;;;;;;6.60;3.70;;;;;;;35.55;26.09;100624.50;108255;1289;544463;-80
2023/08/15 10:07:32;;;;;;;7.60;4.80;;;;;;;35.59;25.65;100622.52;110835;1261;21964;-80
2023/08/15 10:11:04;;;;;;;5.00;4.50;;;;;;;35.55;25.00;100619.89;111179;1258;23620;-81
2023/08/15 10:15:00;;;;;;;11.80;3.00;;;;;;;35.49;24.81;100620.10;111116;1259;21968;-81
2023/08/15 10:19:28;;;;;;;;;;;;;;;;;;;;;
2023/08/15 10:23:24;;;;;;;3.90;2.60;;;;;;;35.24;24.91;100624.50;111109;1261;22229;-82
2023/08/15 10:27:36;;;;;;;4.10;3.00;;;;;;;35.17;25.25;100619.63;111015;1262;21976;-82
2023/08/15 10:31:45;;;;;;;4.30;2.40;;;;;;;35.31;25.06;100617.55;110185;1270;21994;-81
2023/08/15 10:35:15;;;;;;;6.40;3.80;;;;;;;35.30;24.39;100613.55;109338;1277;21983;-80
2023/08/15 10:39:28;;;;;;;8.10;7.00;;;;;;;35.26;24.04;100604.88;109219;1278;22025;-81
2023/08/15 10:43:15;;;;;;;3.90;2.40;;;;;;;35.27;23.87;100605.09;109207;1278;22019;-79
2023/08/15 10:47:14;;;;;;;3.80;2.80;;;;;;;35.18;23.66;100603.27;108790;1283;24520;-80
2023/08/15 10:58:56;;;;;;;4.60;2.20;;;;;;;34.95;23.56;100605.49;108355;1289;22027;-82
2023/08/15 11:02:21;;;;;;;3.60;1.90;;;;;;;34.76;22.97;100604.86;108557;1286;22461;-82
2023/08/15 11:05:26;;;;;;;3.30;2.10;;;;;;;34.59;22.82;100606.96;108438;1286;23059;-82
2023/08/15 11:08:50;;;;;;;;;;;;;;;;;;;;;
2023/08/15 11:11:46;;;;;;;6.70;4.30;;;;;;;34.42;23.20;100608.42;108848;1280;21996;-82
2023/08/15 11:15:25;;;;;;;4.80;3.10;;;;;;;34.38;23.54;100608.71;108840;1280;21994;-82
2023/08/15 11:19:15;;;;;;;5.00;2.50;;;;;;;34.19;23.42;100600.07;109302;1273;21985;-85
2023/08/15 11:23:34;;;;;;;;;;;;;;;;;;;;;
2023/08/15 11:27:10;;;;;;;3.50;1.80;;;;;;;33.98;23.68;100596.02;109670;1273;22770;-86
2023/08/15 11:30:55;;;;;;;5.60;2.40;;;;;;;33.95;23.97;100597.02;109735;1270;21979;-84
2023/08/15 11:34:52;;;;;;;5.80;2.50;;;;;;;33.85;24.16;100592.58;109044;1281;23128;-81
2023/08/15 11:38:30;;;;;;;9.20;2.40;;;;;;;33.71;24.09;100585.80;108933;1281;21854;-80
2023/08/15 11:41:24;;;;;;;4.70;2.10;;;;;;;33.59;24.40;100586.39;108982;1283;22017;-84
2023/08/15 11:47:37;;;;;;;9.80;3.10;;;;;;;33.59;24.75;100586.67;107917;1293;22227;-85
2023/08/15 11:50:31;;;;;;;8.80;2.20;;;;;;;33.66;25.16;100580.09;108190;1292;22025;-82
2023/08/15 11:53:28;;;;;;;7.80;2.30;;;;;;;33.71;25.05;100581.73;108255;1289;21985;-81
2023/08/15 11:56:21;;;;;;;6.80;2.90;;;;;;;33.63;25.12;100582.11;108438;1288;22401;-82
2023/08/15 11:58:56;;;;;;;4.30;2.20;;;;;;;33.57;25.22;100574.25;108238;1281;23749;-80
2023/08/15 12:02:10;;;;;;;6.10;2.30;;;;;;;33.57;25.34;100571.55;108592;1285;23745;-81
2023/08/15 12:05:24;;;;;;;6.50;2.70;;;;;;;33.56;25.48;100565.72;108716;1286;21994;-81
2023/08/15 12:08:03;;;;;;;4.20;2.50;;;;;;;33.60;25.65;100566.64;108747;1286;22697;-80
2023/08/15 12:10:42;;;;;;;5.90;2.40;;;;;;;33.65;25.76;100563.80;108837;1281;22030;-81
2023/08/15 12:13:38;;;;;;;5.70;2.60;;;;;;;33.68;25.61;100558.23;108769;1285;22989;-78
2023/08/15 12:16:19;;;;;;;5.10;2.30;;;;;;;33.72;25.68;100553.50;108720;1285;22004;-80
2023/08/15 12:19:25;;;;;;;4.90;2.70;;;;;;;33.74;25.70;100552.58;108651;1285;21979;-80
2023/08/15 12:22:39;;;;;;;8.00;2.20;;;;;;;33.71;25.84;100555.87;108591;1285;23083;-79
2023/08/15 12:25:23;;;;;;;7.10;2.60;;;;;;;33.72;25.98;100552.66;109533;1271;23846;-81
2023/08/15 12:28:07;;;;;;;5.10;2.60;;;;;;;33.77;26.05;100547.17;109523;1271;22345;-81
2023/08/15 12:30:56;;;;;;;8.20;3.20;;;;;;;33.85;26.03;100547.94;109491;1270;22000;-81
2023/08/15 12:34:06;;;;;;;3.70;2.20;;;;;;;33.93;25.34;100547.11;109810;1270;23760;-81
2023/08/15 12:36:53;;;;;;;4.20;2.10;;;;;;;33.97;24.17;100547.79;109855;1270;21989;-81
2023/08/15 12:39:48;;;;;;;9.90;2.60;;;;;;;33.99;23.96;100543.96;109711;1270;23034;-80
2023/08/15 12:42:40;;;;;;;8.50;1.60;;;;;;;34.01;23.49;100539.63;109824;1270;21974;-79
2023/08/15 12:45:18;;;;;;;;;;;;;;;34.02;23.31;100539.34;109780;1270;22898;-82
2023/08/15 12:48:10;;;;;;;6.30;2.40;;;;;;;33.93;23.20;100538.04;109903;1265;21968;-79
2023/08/15 12:51:09;;;;;;;5.60;2.20;;;;;;;34.00;23.09;100536.26;109737;1271;21995;-81
2023/08/15 12:54:01;;;;;;;4.50;1.80;;;;;;;34.08;22.98;100534.59;109964;1271;23119;-80
2023/08/15 12:56:59;;;;;;;4.00;2.30;;;;;;;34.18;23.07;100534.56;109623;1271;21973;-80
2023/08/15 12:59:43;;;;;;;3.10;1.70;;;;;;;34.25;22.83;100539.02;109619;1271;22037;-80
2023/08/15 13:02:33;;;;;;;2.60;1.70;;;;;;;34.25;22.35;100535.15;109748;1271;21987;-81
2023/08/15 13:05:07;;;;;;;2.80;1.70;;;;;;;34.22;21.96;100528.98;109101;1273;22052;-80
2023/08/15 13:07:52;;;;;;;2.30;1.40;;;;;;;34.16;21.87;100524.27;109173;1277;23961;-81
2023/08/15 13:10:31;;;;;;;5.00;2.30;;;;;;;34.14;22.27;100520.84;109875;1272;22002;-82
2023/08/15 13:13:18;;;;;;;4.40;2.30;;;;;;;34.16;22.65;100520.89;109776;1272;21938;-79
2023/08/15 13:16:11;;;;;;;6.20;1.90;;;;;;;34.17;22.20;100520.55;109530;1277;22059;-81
2023/08/15 13:19:33;;;;;;;3.40;1.90;;;;;;;34.16;22.22;100521.84;109207;1277;23609;-80
2023/08/15 13:22:11;;;;;;;5.40;2.50;;;;;;;34.21;22.35;100512.86;109255;1277;21990;-78
2023/08/15 13:24:59;;;;;;;3.50;1.60;;;;;;;34.25;22.42;100512.45;109284;1272;21961;-80
2023/08/15 13:28:09;;;;;;;4.00;2.10;;;;;;;34.26;22.59;100511.02;109441;1276;22025;-81
2023/08/15 13:30:51;;;;;;;12.00;1.80;;;;;;;34.22;22.12;100505.86;109402;1276;21999;-81
2023/08/15 13:33:42;;;;;;;3.90;2.30;;;;;;;34.21;22.28;100498.93;109578;1271;22947;-81
2023/08/15 13:36:23;;;;;;;2.20;1.40;;;;;;;34.23;22.70;100500.11;109527;1276;21994;-80
2023/08/15 13:39:05;;;;;;;3.40;2.00;;;;;;;34.24;22.62;100497.61;109047;1280;23048;-80
2023/08/15 13:41:46;;;;;;;6.40;2.20;;;;;;;34.23;22.83;100498.90;108846;1284;23085;-81
2023/08/15 13:44:22;;;;;;;5.70;2.10;;;;;;;34.21;23.09;100494.53;109279;1280;23736;-82
2023/08/15 13:46:56;;;;;;;4.80;2.10;;;;;;;34.22;23.22;100494.23;109165;1280;22231;-80
2023/08/15 13:49:42;;;;;;;4.50;1.70;;;;;;;34.24;23.23;100492.55;109156;1280;21986;-81
2023/08/15 13:52:13;;;;;;;3.80;1.90;;;;;;;34.23;23.37;100491.56;109252;1276;22748;-83
2023/08/15 13:55:16;;;;;;;5.60;2.00;;;;;;;34.22;23.29;100490.77;109569;1270;23601;-80
2023/08/15 13:57:50;;;;;;;4.10;2.10;;;;;;;34.18;23.72;100490.44;110230;1265;22594;-80
2023/08/15 14:00:23;;;;;;;3.80;2.00;;;;;;;34.19;23.82;100490.89;110687;1260;21981;-81
2023/08/15 14:03:01;;;;;;;8.10;2.60;;;;;;;34.20;23.91;100488.45;110867;1260;22023;-81
2023/08/15 14:05:45;;;;;;;2.90;2.00;;;;;;;34.20;24.12;100485.65;110676;1264;22963;-81
2023/08/15 14:08:25;;;;;;;3.60;2.10;;;;;;;34.20;24.23;100488.02;110439;1265;22162;-82
2023/08/15 14:11:06;;;;;;;5.80;2.50;;;;;;;34.20;24.19;100488.73;109831;1270;23050;-81
2023/08/15 14:13:37;;;;;;;4.00;2.50;;;;;;;34.20;24.28;100485.45;109774;1270;22565;-79
2023/08/15 14:16:12;;;;;;;3.00;1.90;;;;;;;34.20;24.19;100482.40;109653;1270;21962;-80
2023/08/15 14:18:46;;;;;;;4.10;1.90;;;;;;;34.19;24.27;100482.80;109414;1275;22005;-82
2023/08/15 14:21:22;;;;;;;5.50;2.60;;;;;;;34.16;24.16;100485.10;109196;1278;21982;-81
2023/08/15 14:24:09;;;;;;;3.30;1.80;;;;;;;34.18;24.58;100481.27;108987;1280;23064;-80
2023/08/15 14:26:44;;;;;;;5.70;1.80;;;;;;;34.16;24.54;100483.42;109125;1279;22365;-80
2023/08/15 14:29:29;;;;;;;4.80;2.10;;;;;;;34.12;23.87;100483.52;109105;1275;23058;-85
2023/08/15 14:32:06;;;;;;;3.00;2.30;;;;;;;34.11;23.85;100479.83;109520;1275;22231;-80
2023/08/15 14:34:46;;;;;;;5.90;1.70;;;;;;;34.14;24.14;100475.67;109353;1275;21960;-80
2023/08/15 14:37:35;;;;;;;3.70;1.70;;;;;;;34.13;23.98;100474.34;109700;1271;21997;-81
2023/08/15 14:40:23;;;;;;;3.80;1.90;;;;;;;34.12;23.45;100474.51;110113;1267;21977;-81
2023/08/15 14:43:18;;;;;;;;;;;;;;;;;;;;;
2023/08/15 14:46:27;;;;;;;7.40;2.10;;;;;;;34.06;22.91;100474.60;110294;1267;21938;-81
2023/08/15 14:49:11;;;;;;;5.30;3.80;;;;;;;34.08;23.07;100468.55;110346;1267;23003;-82
2023/08/15 14:51:57;;;;;;;5.00;2.10;;;;;;;34.13;23.13;100475.09;110483;1267;24304;-81
2023/08/15 14:54:51;;;;;;;5.10;2.40;;;;;;;34.10;23.02;100471.54;109992;1266;21977;-80
2023/08/15 14:57:42;;;;;;;4.30;2.00;;;;;;;34.12;22.53;100476.17;110329;1267;21994;-82
2023/08/15 15:03:50;;;;;;;3.40;2.10;;;;;;;34.06;21.99;100472.21;111107;1260;21972;-81
2023/08/15 15:06:29;;;;;;;3.50;1.80;;;;;;;34.07;21.98;100472.67;110978;1260;22239;-81
2023/08/15 15:09:36;;;;;;;;;;;;;;;;;;;;;
2023/08/15 15:12:47;;;;;;;6.80;2.30;;;;;;;34.05;22.12;100471.26;111069;1258;22973;-80
2023/08/15 15:15:32;;;;;;;5.30;2.80;;;;;;;34.08;22.23;100469.63;110307;1265;22768;-81
2023/08/15 15:18:37;;;;;;;5.00;2.40;;;;;;;34.07;22.16;100467.48;110373;1265;22638;-80
2023/08/15 15:21:14;;;;;;;5.10;2.70;;;;;;;34.06;22.12;100465.68;110074;1265;23031;-79
2023/08/15 15:24:21;;;;;;;8.80;3.20;;;;;;;34.06;21.83;100465.02;110776;1265;21971;-82
2023/08/15 15:27:04;;;;;;;6.40;2.50;;;;;;;34.00;21.54;100454.64;110761;1265;21990;-80
2023/08/15 15:30:07;;;;;;;3.60;1.90;;;;;;;33.99;21.81;100454.39;110338;1257;24326;-82
2023/08/15 15:32:56;;;;;;;5.30;2.30;;;;;;;33.98;21.72;100449.07;110731;1260;21956;-80
2023/08/15 15:36:00;;;;;;;6.20;2.40;;;;;;;33.95;21.96;100447.73;110724;1265;21988;-81
2023/08/15 15:38:55;;;;;;;5.10;2.80;;;;;;;33.90;22.05;100433.57;110690;1264;22645;-81
2023/08/15 15:41:57;;;;;;;3.90;2.20;;;;;;;33.86;22.10;100432.51;109717;1271;23088;-81
2023/08/15 15:44:47;;;;;;;3.70;2.30;;;;;;;33.91;22.30;100438.02;109785;1271;23846;-80
2023/08/15 15:47:34;;;;;;;7.60;3.20;;;;;;;33.92;22.54;100437.02;109405;1276;23045;-81
2023/08/15 15:50:32;;;;;;;3.30;2.10;;;;;;;33.88;22.40;100432.79;109308;1279;22078;-81
2023/08/15 15:54:38;;;;;;;2.70;1.50;;;;;;;33.78;22.36;100427.30;109374;1274;22008;-81
2023/08/15 15:58:14;;;;;;;2.70;1.70;;;;;;;33.71;22.34;100431.79;108872;1284;23800;-81
2023/08/15 16:02:00;;;;;;;;;;;;;;;;;;;;;
2023/08/15 16:04:49;;;;;;;5.20;2.40;;;;;;;33.65;22.45;100429.36;108717;1283;22231;-80
2023/08/15 16:07:46;;;;;;;2.90;1.80;;;;;;;33.64;22.58;100430.39;109104;1280;22003;-79
2023/08/15 16:10:28;;;;;;;3.80;2.30;;;;;;;33.60;22.84;100432.55;109082;1280;22003;-79
2023/08/15 16:13:24;;;;;;;11.40;2.80;;;;;;;33.59;23.07;100432.42;108818;1280;21988;-81
2023/08/15 16:16:44;;;;;;;3.60;2.10;;;;;;;33.52;23.38;100432.41;109317;1277;23006;-82
2023/08/15 16:19:53;;;;;;;8.60;2.50;;;;;;;33.47;23.54;100433.12;108808;1284;22028;-79
2023/08/15 16:23:22;;;;;;;5.80;2.30;;;;;;;33.43;23.95;100431.92;108892;1280;21989;-80
2023/08/15 16:26:06;;;;;;;7.70;2.30;;;;;;;33.36;24.03;100432.73;108756;1284;22206;-80
2023/08/15 16:29:35;;;;;;;5.60;2.40;;;;;;;33.30;24.10;100436.96;108920;1281;22017;-84
2023/08/15 16:33:16;;;;;;;5.70;2.80;;;;;;;33.23;24.47;100442.61;109014;1281;22021;-81
2023/08/15 16:36:24;;;;;;;7.70;5.00;;;;;;;33.21;24.73;100444.15;109224;1276;21972;-81
2023/08/15 16:39:08;;;;;;;7.80;3.50;;;;;;;33.22;24.87;100449.02;109406;1261;23053;-81
2023/08/15 16:43:20;;;;;;;;;;;;;;;;;;;;;
2023/08/15 16:46:00;;;;;;;7.70;2.50;;;;;;;33.09;25.15;100445.27;110943;1261;23069;-80
2023/08/15 16:52:48;;;;;;;8.60;2.80;;;;;;;32.91;24.86;100448.64;111254;1261;22350;-81
2023/08/15 16:55:47;;;;;;;6.80;2.10;;;;;;;32.85;24.63;100449.95;111154;1261;21956;-80
2023/08/15 16:59:09;;;;;;;8.70;3.30;;;;;;;32.77;24.60;100456.24;111137;1261;21999;-81
2023/08/15 17:02:39;;;;;;;;;;;;;;;;;;;;;
2023/08/15 17:06:35;;;;;;;9.40;3.10;;;;;;;32.60;24.93;100460.86;110208;1270;21993;-83
2023/08/15 17:10:16;;;;;;;5.30;2.60;;;;;;;32.56;25.08;100466.98;110237;1270;22002;-86
2023/08/15 17:14:21;;;;;;;16.70;8.70;;;;;;;32.45;25.17;100473.27;109774;1277;21993;-83
2023/08/15 17:18:01;;;;;;;;;;;;;;;;;;;;;
2023/08/15 17:21:35;;;;;;;8.30;3.40;;;;;;;32.31;25.64;100485.75;109315;1282;22003;-81
2023/08/15 17:24:33;;;;;;;7.70;4.40;;;;;;;32.21;26.04;100486.56;108916;1285;22761;-83
2023/08/15 17:27:15;;;;;;;7.20;5.70;;;;;;;32.19;26.15;100490.24;108799;1286;22035;-85
2023/08/15 17:30:15;;;;;;;7.90;4.30;;;;;;;32.14;26.35;100494.16;108903;1282;22161;-82
2023/08/15 17:33:36;;;;;;;10.40;3.70;;;;;;;32.04;26.98;100499.17;109043;1280;22004;-81
2023/08/15 17:36:38;;;;;;;9.10;4.20;;;;;;;31.87;28.02;100500.77;108779;1279;22014;-78
2023/08/15 17:39:22;;;;;;;36.50;12.10;;;;;;;31.73;28.56;100503.15;108793;1279;23514;-78
2023/08/15 17:41:57;;;;;;;37.60;13.50;;;;;;;31.46;29.80;100507.89;108652;1279;23090;-80
2023/08/15 17:44:46;;;;;;;33.10;13.50;;;;;;;31.23;30.63;100514.17;108900;1279;21997;-79
2023/08/15 17:47:28;;;;;;;39.00;14.30;;;;;;;30.94;31.20;100518.91;108872;1279;22073;-79
2023/08/15 17:50:06;;;;;;;29.40;10.80;;;;;;;30.73;31.71;100520.96;109043;1273;23801;-77
2023/08/15 17:52:40;;;;;;;17.60;8.70;;;;;;;30.54;32.24;100519.95;109655;1270;21987;-78
2023/08/15 17:55:17;;;;;;;19.10;8.90;;;;;;;30.39;32.14;100521.78;109752;1270;22915;-77
2023/08/15 17:57:55;;;;;;;14.90;8.90;;;;;;;30.23;32.31;100527.77;110365;1259;21975;-79
2023/08/15 18:00:33;;;;;;;12.40;7.50;;;;;;;30.06;32.66;100530.98;110719;1259;23071;-79
2023/08/15 18:03:08;;;;;;;16.00;7.20;;;;;;;29.93;32.63;100537.41;110642;1261;22042;-75
2023/08/15 18:05:46;;;;;;;17.00;7.40;;;;;;;29.78;32.89;100541.28;110662;1261;23595;-75
2023/08/15 18:08:24;;;;;;;17.60;5.70;;;;;;;29.66;33.14;100540.80;110805;1260;21978;-76
2023/08/15 18:11:00;;;;;;;14.00;7.00;;;;;;;29.55;33.16;100543.39;110389;1262;22086;-75
2023/08/15 18:14:06;;;;;;;14.40;6.60;;;;;;;29.42;33.20;100546.99;109514;1271;22452;-75
2023/08/15 18:16:43;;;;;;;12.10;6.50;;;;;;;29.32;33.40;100553.23;109520;1270;21990;-74
2023/08/15 18:19:32;;;;;;;14.40;6.40;;;;;;;29.22;33.35;100551.86;109349;1270;23177;-76
2023/08/15 18:22:20;;;;;;;17.10;9.90;;;;;;;29.13;33.44;100556.06;109392;1270;22060;-75
2023/08/15 18:25:30;;;;;;;16.90;14.90;;;;;;;29.03;33.66;100558.42;109525;1270;21977;-75
2023/08/15 18:28:15;;;;;;;12.20;7.90;;;;;;;28.92;33.82;100559.80;109817;1262;21996;-75
2023/08/15 18:30:56;;;;;;;13.80;6.50;;;;;;;28.86;33.91;100563.52;110734;1258;21985;-75
2023/08/15 18:33:39;;;;;;;20.00;6.70;;;;;;;28.79;34.28;100565.96;110702;1260;21957;-76
2023/08/15 18:36:37;;;;;;;14.30;6.70;;;;;;;28.73;34.54;100566.07;110672;1258;23618;-75
2023/08/15 18:39:55;;;;;;;18.30;6.10;;;;;;;28.61;34.77;100566.84;110671;1260;23837;-77
2023/08/15 18:42:44;;;;;;;21.80;7.70;;;;;;;28.56;35.14;100570.13;110334;1264;22432;-79